sensor_id;sensor_type;location;lat;lon;timestamp;P1;durP1;ratioP1;P2;durP2;ratioP2
22949;SDS011;11641;51.018;4.474;2023-03-25T00:00:19;4.22;;;0.93;;
22949;SDS011;11641;51.018;4.474;2023-03-25T00:02:48;5.38;;;1.20;;
22949;SDS011;11641;51.018;4.474;2023-03-25T00:05:16;5.75;;;1.25;;
22949;SDS011;11641;51.018;4.474;2023-03-25T00:07:47;4.63;;;0.80;;
22949;SDS011;11641;51.018;4.474;2023-03-25T00:10:15;4.70;;;1.10;;
22949;SDS011;11641;51.018;4.474;2023-03-25T00:12:41;2.95;;;1.02;;
22949;SDS011;11641;51.018;4.474;2023-03-25T00:15:07;2.65;;;0.80;;
22949;SDS011;11641;51.018;4.474;2023-03-25T00:17:34;4.40;;;1.20;;
22949;SDS011;11641;51.018;4.474;2023-03-25T00:20:02;7.13;;;0.90;;
22949;SDS011;11641;51.018;4.474;2023-03-25T00:22:36;3.83;;;1.00;;
22949;SDS011;11641;51.018;4.474;2023-03-25T00:25:10;4.00;;;0.90;;
22949;SDS011;11641;51.018;4.474;2023-03-25T00:27:41;6.90;;;1.50;;
22949;SDS011;11641;51.018;4.474;2023-03-25T00:30:10;4.45;;;0.88;;
22949;SDS011;11641;51.018;4.474;2023-03-25T00:32:36;3.90;;;0.88;;
22949;SDS011;11641;51.018;4.474;2023-03-25T00:35:03;6.20;;;1.20;;
22949;SDS011;11641;51.018;4.474;2023-03-25T00:37:33;2.15;;;0.70;;
22949;SDS011;11641;51.018;4.474;2023-03-25T00:39:58;4.32;;;0.98;;
22949;SDS011;11641;51.018;4.474;2023-03-25T00:42:24;5.55;;;1.30;;
22949;SDS011;11641;51.018;4.474;2023-03-25T00:44:53;4.10;;;1.02;;
22949;SDS011;11641;51.018;4.474;2023-03-25T00:47:19;7.25;;;1.52;;
22949;SDS011;11641;51.018;4.474;2023-03-25T00:49:50;7.25;;;1.10;;
22949;SDS011;11641;51.018;4.474;2023-03-25T00:52:18;4.53;;;0.95;;
22949;SDS011;11641;51.018;4.474;2023-03-25T00:54:47;9.35;;;0.95;;
22949;SDS011;11641;51.018;4.474;2023-03-25T00:57:12;3.67;;;0.88;;
22949;SDS011;11641;51.018;4.474;2023-03-25T00:59:43;3.75;;;1.02;;
22949;SDS011;11641;51.018;4.474;2023-03-25T01:02:12;6.13;;;1.48;;
22949;SDS011;11641;51.018;4.474;2023-03-25T01:04:38;5.63;;;1.23;;
22949;SDS011;11641;51.018;4.474;2023-03-25T01:07:06;6.07;;;1.23;;
22949;SDS011;11641;51.018;4.474;2023-03-25T01:09:32;6.05;;;1.40;;
22949;SDS011;11641;51.018;4.474;2023-03-25T01:12:00;7.05;;;1.23;;
22949;SDS011;11641;51.018;4.474;2023-03-25T01:14:25;5.47;;;0.88;;
22949;SDS011;11641;51.018;4.474;2023-03-25T01:16:52;4.43;;;0.98;;
22949;SDS011;11641;51.018;4.474;2023-03-25T01:19:18;4.65;;;0.93;;
22949;SDS011;11641;51.018;4.474;2023-03-25T01:21:45;5.15;;;0.95;;
22949;SDS011;11641;51.018;4.474;2023-03-25T01:24:13;3.45;;;1.23;;
22949;SDS011;11641;51.018;4.474;2023-03-25T01:26:39;6.28;;;1.10;;
22949;SDS011;11641;51.018;4.474;2023-03-25T01:29:07;6.88;;;1.10;;
22949;SDS011;11641;51.018;4.474;2023-03-25T01:31:37;11.13;;;1.40;;
22949;SDS011;11641;51.018;4.474;2023-03-25T01:34:03;5.13;;;0.80;;
22949;SDS011;11641;51.018;4.474;2023-03-25T01:36:32;6.50;;;1.17;;
22949;SDS011;11641;51.018;4.474;2023-03-25T01:39:02;5.70;;;1.00;;
22949;SDS011;11641;51.018;4.474;2023-03-25T01:41:29;6.45;;;1.30;;
22949;SDS011;11641;51.018;4.474;2023-03-25T01:46:36;6.05;;;1.25;;
22949;SDS011;11641;51.018;4.474;2023-03-25T01:49:09;7.90;;;1.70;;
22949;SDS011;11641;51.018;4.474;2023-03-25T01:51:39;4.15;;;1.17;;
22949;SDS011;11641;51.018;4.474;2023-03-25T01:54:08;4.65;;;1.02;;
22949;SDS011;11641;51.018;4.474;2023-03-25T01:56:37;6.80;;;1.27;;
22949;SDS011;11641;51.018;4.474;2023-03-25T01:59:06;6.97;;;1.20;;
22949;SDS011;11641;51.018;4.474;2023-03-25T02:01:35;6.63;;;1.25;;
22949;SDS011;11641;51.018;4.474;2023-03-25T02:04:04;3.63;;;0.90;;
22949;SDS011;11641;51.018;4.474;2023-03-25T02:06:45;6.45;;;1.27;;
22949;SDS011;11641;51.018;4.474;2023-03-25T02:09:17;9.25;;;1.48;;
22949;SDS011;11641;51.018;4.474;2023-03-25T02:11:47;6.95;;;1.25;;
22949;SDS011;11641;51.018;4.474;2023-03-25T02:14:17;5.65;;;1.15;;
22949;SDS011;11641;51.018;4.474;2023-03-25T02:28:01;7.03;;;1.25;;
22949;SDS011;11641;51.018;4.474;2023-03-25T02:30:49;10.63;;;2.00;;
22949;SDS011;11641;51.018;4.474;2023-03-25T02:44:02;14.73;;;1.42;;
22949;SDS011;11641;51.018;4.474;2023-03-25T02:46:48;6.25;;;1.08;;
22949;SDS011;11641;51.018;4.474;2023-03-25T02:49:23;6.53;;;1.25;;
22949;SDS011;11641;51.018;4.474;2023-03-25T02:51:59;11.35;;;1.13;;
22949;SDS011;11641;51.018;4.474;2023-03-25T02:54:26;6.88;;;1.52;;
22949;SDS011;11641;51.018;4.474;2023-03-25T02:56:57;7.80;;;0.98;;
22949;SDS011;11641;51.018;4.474;2023-03-25T02:59:24;8.40;;;1.60;;
22949;SDS011;11641;51.018;4.474;2023-03-25T03:01:57;5.53;;;1.20;;
22949;SDS011;11641;51.018;4.474;2023-03-25T03:04:28;6.55;;;1.52;;
22949;SDS011;11641;51.018;4.474;2023-03-25T03:06:54;8.75;;;1.25;;
22949;SDS011;11641;51.018;4.474;2023-03-25T03:14:42;3.53;;;1.15;;
22949;SDS011;11641;51.018;4.474;2023-03-25T03:17:37;9.02;;;1.30;;
22949;SDS011;11641;51.018;4.474;2023-03-25T03:25:54;11.07;;;1.33;;
22949;SDS011;11641;51.018;4.474;2023-03-25T03:31:14;12.82;;;1.70;;
22949;SDS011;11641;51.018;4.474;2023-03-25T03:33:47;6.88;;;0.90;;
22949;SDS011;11641;51.018;4.474;2023-03-25T03:36:23;8.65;;;1.45;;
22949;SDS011;11641;51.018;4.474;2023-03-25T03:38:57;8.70;;;1.40;;
22949;SDS011;11641;51.018;4.474;2023-03-25T03:41:26;6.07;;;1.25;;
22949;SDS011;11641;51.018;4.474;2023-03-25T03:43:57;8.95;;;1.50;;
22949;SDS011;11641;51.018;4.474;2023-03-25T03:46:30;7.53;;;1.10;;
22949;SDS011;11641;51.018;4.474;2023-03-25T03:48:57;3.72;;;1.10;;
22949;SDS011;11641;51.018;4.474;2023-03-25T03:51:35;7.35;;;1.83;;
22949;SDS011;11641;51.018;4.474;2023-03-25T03:56:44;3.50;;;0.93;;
22949;SDS011;11641;51.018;4.474;2023-03-25T03:59:26;4.60;;;1.40;;
22949;SDS011;11641;51.018;4.474;2023-03-25T04:02:15;5.25;;;1.08;;
22949;SDS011;11641;51.018;4.474;2023-03-25T04:04:56;8.32;;;1.30;;
22949;SDS011;11641;51.018;4.474;2023-03-25T04:10:31;6.43;;;1.45;;
22949;SDS011;11641;51.018;4.474;2023-03-25T04:13:04;11.63;;;2.20;;
22949;SDS011;11641;51.018;4.474;2023-03-25T04:15:35;9.70;;;1.40;;
22949;SDS011;11641;51.018;4.474;2023-03-25T04:18:01;9.18;;;1.40;;
22949;SDS011;11641;51.018;4.474;2023-03-25T04:20:28;8.70;;;1.27;;
22949;SDS011;11641;51.018;4.474;2023-03-25T04:22:58;9.15;;;1.30;;
22949;SDS011;11641;51.018;4.474;2023-03-25T04:25:24;7.65;;;1.20;;
22949;SDS011;11641;51.018;4.474;2023-03-25T04:27:55;7.80;;;1.38;;
22949;SDS011;11641;51.018;4.474;2023-03-25T04:30:25;13.50;;;2.97;;
22949;SDS011;11641;51.018;4.474;2023-03-25T04:32:52;9.82;;;1.45;;
22949;SDS011;11641;51.018;4.474;2023-03-25T04:35:18;7.18;;;1.33;;
22949;SDS011;11641;51.018;4.474;2023-03-25T04:37:44;8.07;;;1.50;;
22949;SDS011;11641;51.018;4.474;2023-03-25T04:40:13;8.27;;;1.20;;
22949;SDS011;11641;51.018;4.474;2023-03-25T04:42:43;12.52;;;1.42;;
22949;SDS011;11641;51.018;4.474;2023-03-25T04:45:10;12.60;;;1.83;;
22949;SDS011;11641;51.018;4.474;2023-03-25T04:47:40;11.13;;;1.50;;
22949;SDS011;11641;51.018;4.474;2023-03-25T04:50:15;9.18;;;1.58;;
22949;SDS011;11641;51.018;4.474;2023-03-25T04:52:47;9.13;;;1.52;;
22949;SDS011;11641;51.018;4.474;2023-03-25T04:55:17;11.77;;;1.90;;
22949;SDS011;11641;51.018;4.474;2023-03-25T04:57:44;8.00;;;1.52;;
22949;SDS011;11641;51.018;4.474;2023-03-25T05:00:15;9.02;;;1.23;;
22949;SDS011;11641;51.018;4.474;2023-03-25T05:02:52;9.18;;;1.40;;
22949;SDS011;11641;51.018;4.474;2023-03-25T05:05:21;8.98;;;2.08;;
22949;SDS011;11641;51.018;4.474;2023-03-25T05:07:49;9.95;;;1.83;;
22949;SDS011;11641;51.018;4.474;2023-03-25T05:10:21;8.85;;;1.90;;
22949;SDS011;11641;51.018;4.474;2023-03-25T05:12:48;8.60;;;1.50;;
22949;SDS011;11641;51.018;4.474;2023-03-25T05:15:15;13.45;;;2.33;;
22949;SDS011;11641;51.018;4.474;2023-03-25T05:17:41;5.53;;;1.08;;
22949;SDS011;11641;51.018;4.474;2023-03-25T05:20:08;12.18;;;1.80;;
22949;SDS011;11641;51.018;4.474;2023-03-25T05:22:37;15.00;;;1.35;;
22949;SDS011;11641;51.018;4.474;2023-03-25T05:25:04;6.45;;;1.20;;
22949;SDS011;11641;51.018;4.474;2023-03-25T05:27:31;12.65;;;1.50;;
22949;SDS011;11641;51.018;4.474;2023-03-25T05:29:57;10.73;;;1.83;;
22949;SDS011;11641;51.018;4.474;2023-03-25T05:32:23;7.60;;;1.77;;
22949;SDS011;11641;51.018;4.474;2023-03-25T05:34:54;10.82;;;2.45;;
22949;SDS011;11641;51.018;4.474;2023-03-25T05:37:20;6.80;;;1.23;;
22949;SDS011;11641;51.018;4.474;2023-03-25T05:39:46;11.40;;;1.90;;
22949;SDS011;11641;51.018;4.474;2023-03-25T05:42:12;11.60;;;2.25;;
22949;SDS011;11641;51.018;4.474;2023-03-25T05:44:38;11.32;;;1.60;;
22949;SDS011;11641;51.018;4.474;2023-03-25T05:47:10;11.90;;;2.17;;
22949;SDS011;11641;51.018;4.474;2023-03-25T05:49:37;12.68;;;1.90;;
22949;SDS011;11641;51.018;4.474;2023-03-25T05:52:05;10.55;;;1.33;;
22949;SDS011;11641;51.018;4.474;2023-03-25T05:54:33;15.02;;;1.80;;
22949;SDS011;11641;51.018;4.474;2023-03-25T05:57:03;12.05;;;1.80;;
22949;SDS011;11641;51.018;4.474;2023-03-25T05:59:29;9.32;;;1.13;;
22949;SDS011;11641;51.018;4.474;2023-03-25T06:01:55;13.25;;;1.60;;
22949;SDS011;11641;51.018;4.474;2023-03-25T06:04:21;8.52;;;1.42;;
22949;SDS011;11641;51.018;4.474;2023-03-25T06:06:47;9.07;;;1.80;;
22949;SDS011;11641;51.018;4.474;2023-03-25T06:09:13;13.07;;;2.33;;
22949;SDS011;11641;51.018;4.474;2023-03-25T06:11:39;11.63;;;2.30;;
22949;SDS011;11641;51.018;4.474;2023-03-25T06:14:05;13.73;;;1.88;;
22949;SDS011;11641;51.018;4.474;2023-03-25T06:16:31;13.00;;;1.95;;
22949;SDS011;11641;51.018;4.474;2023-03-25T06:18:57;15.23;;;2.00;;
22949;SDS011;11641;51.018;4.474;2023-03-25T06:21:25;7.32;;;1.77;;
22949;SDS011;11641;51.018;4.474;2023-03-25T06:23:57;7.97;;;1.73;;
22949;SDS011;11641;51.018;4.474;2023-03-25T06:26:25;11.65;;;2.10;;
22949;SDS011;11641;51.018;4.474;2023-03-25T06:28:51;7.05;;;1.40;;
22949;SDS011;11641;51.018;4.474;2023-03-25T06:31:20;17.90;;;2.47;;
22949;SDS011;11641;51.018;4.474;2023-03-25T06:33:50;9.98;;;1.50;;
22949;SDS011;11641;51.018;4.474;2023-03-25T06:36:17;13.90;;;2.05;;
22949;SDS011;11641;51.018;4.474;2023-03-25T06:38:46;11.68;;;1.77;;
22949;SDS011;11641;51.018;4.474;2023-03-25T06:41:13;11.85;;;1.80;;
22949;SDS011;11641;51.018;4.474;2023-03-25T06:43:39;5.65;;;1.45;;
22949;SDS011;11641;51.018;4.474;2023-03-25T06:46:05;13.20;;;1.42;;
22949;SDS011;11641;51.018;4.474;2023-03-25T06:48:31;14.50;;;1.90;;
22949;SDS011;11641;51.018;4.474;2023-03-25T06:51:00;10.48;;;1.98;;
22949;SDS011;11641;51.018;4.474;2023-03-25T06:53:25;9.13;;;2.00;;
22949;SDS011;11641;51.018;4.474;2023-03-25T06:55:51;16.75;;;2.40;;
22949;SDS011;11641;51.018;4.474;2023-03-25T06:58:17;10.05;;;2.03;;
22949;SDS011;11641;51.018;4.474;2023-03-25T07:00:42;14.38;;;1.50;;
22949;SDS011;11641;51.018;4.474;2023-03-25T07:03:09;11.60;;;1.60;;
22949;SDS011;11641;51.018;4.474;2023-03-25T07:05:35;17.58;;;2.00;;
22949;SDS011;11641;51.018;4.474;2023-03-25T07:08:01;10.40;;;1.67;;
22949;SDS011;11641;51.018;4.474;2023-03-25T07:10:29;14.70;;;2.10;;
22949;SDS011;11641;51.018;4.474;2023-03-25T07:12:55;15.27;;;1.73;;
22949;SDS011;11641;51.018;4.474;2023-03-25T07:15:20;22.52;;;2.10;;
22949;SDS011;11641;51.018;4.474;2023-03-25T07:17:48;14.90;;;1.70;;
22949;SDS011;11641;51.018;4.474;2023-03-25T07:20:14;15.75;;;2.05;;
22949;SDS011;11641;51.018;4.474;2023-03-25T07:22:40;10.07;;;1.27;;
22949;SDS011;11641;51.018;4.474;2023-03-25T07:25:06;14.32;;;1.40;;
22949;SDS011;11641;51.018;4.474;2023-03-25T07:27:34;15.27;;;1.85;;
22949;SDS011;11641;51.018;4.474;2023-03-25T07:30:00;13.07;;;1.73;;
22949;SDS011;11641;51.018;4.474;2023-03-25T07:32:28;13.52;;;1.83;;
22949;SDS011;11641;51.018;4.474;2023-03-25T07:34:54;11.25;;;1.75;;
22949;SDS011;11641;51.018;4.474;2023-03-25T07:37:19;14.93;;;1.52;;
22949;SDS011;11641;51.018;4.474;2023-03-25T07:39:47;16.30;;;1.95;;
22949;SDS011;11641;51.018;4.474;2023-03-25T07:42:15;19.58;;;2.35;;
22949;SDS011;11641;51.018;4.474;2023-03-25T07:44:41;20.35;;;2.20;;
22949;SDS011;11641;51.018;4.474;2023-03-25T07:47:06;14.35;;;2.13;;
22949;SDS011;11641;51.018;4.474;2023-03-25T07:49:32;16.08;;;1.90;;
22949;SDS011;11641;51.018;4.474;2023-03-25T07:51:58;17.13;;;2.40;;
22949;SDS011;11641;51.018;4.474;2023-03-25T07:54:23;13.80;;;1.75;;
22949;SDS011;11641;51.018;4.474;2023-03-25T07:56:49;19.40;;;2.33;;
22949;SDS011;11641;51.018;4.474;2023-03-25T07:59:16;15.43;;;2.25;;
22949;SDS011;11641;51.018;4.474;2023-03-25T08:01:42;13.88;;;2.38;;
22949;SDS011;11641;51.018;4.474;2023-03-25T08:04:08;21.75;;;2.22;;
22949;SDS011;11641;51.018;4.474;2023-03-25T08:06:33;15.40;;;2.55;;
22949;SDS011;11641;51.018;4.474;2023-03-25T08:08:59;15.45;;;1.92;;
22949;SDS011;11641;51.018;4.474;2023-03-25T08:11:25;17.10;;;2.55;;
22949;SDS011;11641;51.018;4.474;2023-03-25T08:13:51;17.98;;;2.90;;
22949;SDS011;11641;51.018;4.474;2023-03-25T08:16:16;13.63;;;2.03;;
22949;SDS011;11641;51.018;4.474;2023-03-25T08:18:42;17.65;;;2.17;;
22949;SDS011;11641;51.018;4.474;2023-03-25T08:21:16;21.75;;;2.50;;
22949;SDS011;11641;51.018;4.474;2023-03-25T08:23:48;17.60;;;1.73;;
22949;SDS011;11641;51.018;4.474;2023-03-25T08:26:15;20.70;;;2.65;;
22949;SDS011;11641;51.018;4.474;2023-03-25T08:28:41;11.52;;;3.20;;
22949;SDS011;11641;51.018;4.474;2023-03-25T08:31:06;17.42;;;3.13;;
22949;SDS011;11641;51.018;4.474;2023-03-25T08:33:33;15.18;;;3.17;;
22949;SDS011;11641;51.018;4.474;2023-03-25T08:36:05;14.68;;;2.03;;
22949;SDS011;11641;51.018;4.474;2023-03-25T08:38:33;14.88;;;2.40;;
22949;SDS011;11641;51.018;4.474;2023-03-25T08:41:01;15.95;;;2.20;;
22949;SDS011;11641;51.018;4.474;2023-03-25T08:43:27;11.85;;;2.33;;
22949;SDS011;11641;51.018;4.474;2023-03-25T08:45:55;18.45;;;2.53;;
22949;SDS011;11641;51.018;4.474;2023-03-25T08:48:21;19.02;;;2.53;;
22949;SDS011;11641;51.018;4.474;2023-03-25T08:50:47;17.23;;;3.20;;
22949;SDS011;11641;51.018;4.474;2023-03-25T08:53:13;19.15;;;2.53;;
22949;SDS011;11641;51.018;4.474;2023-03-25T08:55:38;17.02;;;2.50;;
22949;SDS011;11641;51.018;4.474;2023-03-25T08:58:04;12.63;;;2.42;;
22949;SDS011;11641;51.018;4.474;2023-03-25T09:00:32;16.75;;;3.00;;
22949;SDS011;11641;51.018;4.474;2023-03-25T09:02:59;18.35;;;3.15;;
22949;SDS011;11641;51.018;4.474;2023-03-25T09:05:24;14.60;;;2.83;;
22949;SDS011;11641;51.018;4.474;2023-03-25T09:07:50;21.98;;;3.28;;
22949;SDS011;11641;51.018;4.474;2023-03-25T09:10:19;18.45;;;2.85;;
22949;SDS011;11641;51.018;4.474;2023-03-25T09:12:45;22.65;;;3.15;;
22949;SDS011;11641;51.018;4.474;2023-03-25T09:15:13;15.73;;;3.30;;
22949;SDS011;11641;51.018;4.474;2023-03-25T09:17:41;18.88;;;3.15;;
22949;SDS011;11641;51.018;4.474;2023-03-25T09:20:07;11.48;;;2.60;;
22949;SDS011;11641;51.018;4.474;2023-03-25T09:22:34;19.20;;;2.78;;
22949;SDS011;11641;51.018;4.474;2023-03-25T09:25:00;20.70;;;2.92;;
22949;SDS011;11641;51.018;4.474;2023-03-25T09:27:28;14.52;;;2.13;;
22949;SDS011;11641;51.018;4.474;2023-03-25T09:29:53;19.92;;;2.92;;
22949;SDS011;11641;51.018;4.474;2023-03-25T09:32:19;15.57;;;2.80;;
22949;SDS011;11641;51.018;4.474;2023-03-25T09:34:45;18.75;;;3.72;;
22949;SDS011;11641;51.018;4.474;2023-03-25T09:37:13;15.73;;;2.92;;
22949;SDS011;11641;51.018;4.474;2023-03-25T09:39:39;13.73;;;2.15;;
22949;SDS011;11641;51.018;4.474;2023-03-25T09:47:21;18.10;;;2.83;;
22949;SDS011;11641;51.018;4.474;2023-03-25T09:49:50;10.52;;;1.73;;
22949;SDS011;11641;51.018;4.474;2023-03-25T09:52:25;17.67;;;3.10;;
22949;SDS011;11641;51.018;4.474;2023-03-25T09:55:29;18.40;;;3.15;;
22949;SDS011;11641;51.018;4.474;2023-03-25T09:58:01;14.38;;;2.80;;
22949;SDS011;11641;51.018;4.474;2023-03-25T10:00:53;17.55;;;2.35;;
22949;SDS011;11641;51.018;4.474;2023-03-25T10:06:13;16.75;;;2.85;;
22949;SDS011;11641;51.018;4.474;2023-03-25T10:08:51;17.40;;;2.60;;
22949;SDS011;11641;51.018;4.474;2023-03-25T10:14:07;15.55;;;2.88;;
22949;SDS011;11641;51.018;4.474;2023-03-25T10:22:20;10.43;;;2.22;;
22949;SDS011;11641;51.018;4.474;2023-03-25T10:24:50;11.85;;;2.10;;
22949;SDS011;11641;51.018;4.474;2023-03-25T10:32:45;19.23;;;2.75;;
22949;SDS011;11641;51.018;4.474;2023-03-25T10:35:19;15.25;;;2.38;;
22949;SDS011;11641;51.018;4.474;2023-03-25T10:37:48;13.77;;;2.17;;
22949;SDS011;11641;51.018;4.474;2023-03-25T10:40:26;16.70;;;2.97;;
22949;SDS011;11641;51.018;4.474;2023-03-25T10:45:50;17.90;;;4.10;;
22949;SDS011;11641;51.018;4.474;2023-03-25T10:48:25;16.27;;;2.38;;
22949;SDS011;11641;51.018;4.474;2023-03-25T10:50:54;15.63;;;2.72;;
22949;SDS011;11641;51.018;4.474;2023-03-25T10:53:30;21.08;;;3.30;;
22949;SDS011;11641;51.018;4.474;2023-03-25T10:58:33;10.32;;;2.08;;
22949;SDS011;11641;51.018;4.474;2023-03-25T11:01:09;15.32;;;2.85;;
22949;SDS011;11641;51.018;4.474;2023-03-25T11:03:37;13.85;;;2.65;;
22949;SDS011;11641;51.018;4.474;2023-03-25T11:06:05;11.00;;;2.75;;
22949;SDS011;11641;51.018;4.474;2023-03-25T11:08:34;16.88;;;3.15;;
22949;SDS011;11641;51.018;4.474;2023-03-25T11:11:00;19.05;;;2.65;;
22949;SDS011;11641;51.018;4.474;2023-03-25T11:13:32;19.30;;;2.63;;
22949;SDS011;11641;51.018;4.474;2023-03-25T11:16:00;11.98;;;2.70;;
22949;SDS011;11641;51.018;4.474;2023-03-25T11:18:34;19.98;;;3.47;;
22949;SDS011;11641;51.018;4.474;2023-03-25T11:21:10;18.13;;;2.67;;
22949;SDS011;11641;51.018;4.474;2023-03-25T11:23:47;18.38;;;3.13;;
22949;SDS011;11641;51.018;4.474;2023-03-25T11:28:53;14.05;;;2.10;;
22949;SDS011;11641;51.018;4.474;2023-03-25T11:31:21;12.10;;;1.80;;
22949;SDS011;11641;51.018;4.474;2023-03-25T11:36:37;7.65;;;1.58;;
22949;SDS011;11641;51.018;4.474;2023-03-25T11:44:56;14.82;;;1.90;;
22949;SDS011;11641;51.018;4.474;2023-03-25T11:47:25;15.65;;;2.33;;
22949;SDS011;11641;51.018;4.474;2023-03-25T11:49:54;11.40;;;2.13;;
22949;SDS011;11641;51.018;4.474;2023-03-25T11:52:21;15.43;;;2.30;;
22949;SDS011;11641;51.018;4.474;2023-03-25T11:54:49;15.75;;;2.22;;
22949;SDS011;11641;51.018;4.474;2023-03-25T11:57:19;6.57;;;1.17;;
22949;SDS011;11641;51.018;4.474;2023-03-25T11:59:56;9.02;;;1.83;;
22949;SDS011;11641;51.018;4.474;2023-03-25T12:02:42;8.43;;;1.40;;
22949;SDS011;11641;51.018;4.474;2023-03-25T12:07:41;7.00;;;1.63;;
22949;SDS011;11641;51.018;4.474;2023-03-25T12:10:59;12.07;;;2.20;;
22949;SDS011;11641;51.018;4.474;2023-03-25T12:16:06;11.25;;;1.85;;
22949;SDS011;11641;51.018;4.474;2023-03-25T12:18:47;12.60;;;2.75;;
22949;SDS011;11641;51.018;4.474;2023-03-25T12:21:36;10.48;;;1.73;;
22949;SDS011;11641;51.018;4.474;2023-03-25T12:30:22;11.95;;;2.17;;
22949;SDS011;11641;51.018;4.474;2023-03-25T12:32:54;9.50;;;1.95;;
22949;SDS011;11641;51.018;4.474;2023-03-25T12:36:00;10.85;;;1.88;;
22949;SDS011;11641;51.018;4.474;2023-03-25T12:54:39;16.63;;;2.33;;
22949;SDS011;11641;51.018;4.474;2023-03-25T13:00:37;19.20;;;2.13;;
22949;SDS011;11641;51.018;4.474;2023-03-25T13:09:05;10.95;;;2.00;;
22949;SDS011;11641;51.018;4.474;2023-03-25T13:11:57;9.63;;;2.10;;
22949;SDS011;11641;51.018;4.474;2023-03-25T13:14:38;12.63;;;2.45;;
22949;SDS011;11641;51.018;4.474;2023-03-25T13:17:12;15.70;;;2.70;;
22949;SDS011;11641;51.018;4.474;2023-03-25T13:19:49;10.90;;;1.48;;
22949;SDS011;11641;51.018;4.474;2023-03-25T13:22:22;10.93;;;1.83;;
22949;SDS011;11641;51.018;4.474;2023-03-25T13:24:57;18.90;;;3.03;;
22949;SDS011;11641;51.018;4.474;2023-03-25T13:27:29;16.27;;;2.55;;
22949;SDS011;11641;51.018;4.474;2023-03-25T13:29:58;13.85;;;2.08;;
22949;SDS011;11641;51.018;4.474;2023-03-25T13:32:27;16.75;;;2.20;;
22949;SDS011;11641;51.018;4.474;2023-03-25T13:35:05;18.73;;;3.78;;
22949;SDS011;11641;51.018;4.474;2023-03-25T13:37:38;20.42;;;2.60;;
22949;SDS011;11641;51.018;4.474;2023-03-25T13:42:38;15.32;;;2.10;;
22949;SDS011;11641;51.018;4.474;2023-03-25T13:45:08;11.82;;;2.15;;
22949;SDS011;11641;51.018;4.474;2023-03-25T13:47:45;14.88;;;2.13;;
22949;SDS011;11641;51.018;4.474;2023-03-25T13:50:25;10.52;;;2.08;;
22949;SDS011;11641;51.018;4.474;2023-03-25T13:53:01;11.95;;;2.50;;
22949;SDS011;11641;51.018;4.474;2023-03-25T13:55:47;15.13;;;2.63;;
22949;SDS011;11641;51.018;4.474;2023-03-25T14:01:37;12.65;;;2.40;;
22949;SDS011;11641;51.018;4.474;2023-03-25T14:12:43;13.57;;;3.03;;
22949;SDS011;11641;51.018;4.474;2023-03-25T14:15:17;16.60;;;2.72;;
22949;SDS011;11641;51.018;4.474;2023-03-25T14:17:47;13.30;;;2.10;;
22949;SDS011;11641;51.018;4.474;2023-03-25T14:20:18;13.52;;;2.47;;
22949;SDS011;11641;51.018;4.474;2023-03-25T14:23:04;18.85;;;3.40;;
22949;SDS011;11641;51.018;4.474;2023-03-25T14:28:07;14.30;;;2.50;;
22949;SDS011;11641;51.018;4.474;2023-03-25T14:30:40;14.67;;;2.43;;
22949;SDS011;11641;51.018;4.474;2023-03-25T14:33:09;17.13;;;2.63;;
22949;SDS011;11641;51.018;4.474;2023-03-25T14:46:19;15.80;;;2.08;;
22949;SDS011;11641;51.018;4.474;2023-03-25T14:48:48;14.63;;;1.98;;
22949;SDS011;11641;51.018;4.474;2023-03-25T14:59:34;9.43;;;2.10;;
22949;SDS011;11641;51.018;4.474;2023-03-25T15:02:08;11.55;;;2.30;;
22949;SDS011;11641;51.018;4.474;2023-03-25T15:04:54;9.43;;;2.00;;
22949;SDS011;11641;51.018;4.474;2023-03-25T15:10:19;10.20;;;2.15;;
22949;SDS011;11641;51.018;4.474;2023-03-25T15:12:47;13.80;;;2.25;;
22949;SDS011;11641;51.018;4.474;2023-03-25T15:15:26;15.70;;;2.60;;
22949;SDS011;11641;51.018;4.474;2023-03-25T15:21:11;12.63;;;2.70;;
22949;SDS011;11641;51.018;4.474;2023-03-25T15:23:51;11.30;;;2.10;;
22949;SDS011;11641;51.018;4.474;2023-03-25T15:37:42;14.70;;;2.22;;
22949;SDS011;11641;51.018;4.474;2023-03-25T15:40:30;16.08;;;2.85;;
22949;SDS011;11641;51.018;4.474;2023-03-25T15:51:12;14.18;;;2.65;;
22949;SDS011;11641;51.018;4.474;2023-03-25T15:54:10;14.93;;;2.60;;
22949;SDS011;11641;51.018;4.474;2023-03-25T15:56:46;15.60;;;2.58;;
22949;SDS011;11641;51.018;4.474;2023-03-25T16:01:54;10.35;;;2.28;;
22949;SDS011;11641;51.018;4.474;2023-03-25T16:04:38;12.02;;;2.63;;
22949;SDS011;11641;51.018;4.474;2023-03-25T16:07:11;20.33;;;3.67;;
22949;SDS011;11641;51.018;4.474;2023-03-25T16:09:39;13.70;;;2.60;;
22949;SDS011;11641;51.018;4.474;2023-03-25T16:12:10;19.58;;;2.80;;
22949;SDS011;11641;51.018;4.474;2023-03-25T16:14:36;15.60;;;2.85;;
22949;SDS011;11641;51.018;4.474;2023-03-25T16:17:03;18.73;;;3.40;;
22949;SDS011;11641;51.018;4.474;2023-03-25T16:19:38;15.60;;;2.83;;
22949;SDS011;11641;51.018;4.474;2023-03-25T16:24:40;19.77;;;3.20;;
22949;SDS011;11641;51.018;4.474;2023-03-25T16:27:17;19.83;;;3.63;;
22949;SDS011;11641;51.018;4.474;2023-03-25T16:29:48;26.05;;;2.63;;
22949;SDS011;11641;51.018;4.474;2023-03-25T16:32:18;15.57;;;3.67;;
22949;SDS011;11641;51.018;4.474;2023-03-25T16:34:46;14.10;;;2.17;;
22949;SDS011;11641;51.018;4.474;2023-03-25T16:37:15;13.65;;;2.40;;
22949;SDS011;11641;51.018;4.474;2023-03-25T16:39:48;16.75;;;2.75;;
22949;SDS011;11641;51.018;4.474;2023-03-25T16:42:19;18.38;;;2.50;;
22949;SDS011;11641;51.018;4.474;2023-03-25T16:44:48;14.55;;;2.70;;
22949;SDS011;11641;51.018;4.474;2023-03-25T16:47:16;16.85;;;2.45;;
22949;SDS011;11641;51.018;4.474;2023-03-25T16:49:47;15.93;;;3.00;;
22949;SDS011;11641;51.018;4.474;2023-03-25T16:52:15;24.48;;;3.53;;
22949;SDS011;11641;51.018;4.474;2023-03-25T16:57:16;17.73;;;3.80;;
22949;SDS011;11641;51.018;4.474;2023-03-25T16:59:52;23.13;;;3.28;;
22949;SDS011;11641;51.018;4.474;2023-03-25T17:10:32;18.70;;;5.05;;
22949;SDS011;11641;51.018;4.474;2023-03-25T17:13:16;17.38;;;3.47;;
22949;SDS011;11641;51.018;4.474;2023-03-25T17:15:54;18.02;;;3.17;;
22949;SDS011;11641;51.018;4.474;2023-03-25T17:18:22;22.00;;;3.45;;
22949;SDS011;11641;51.018;4.474;2023-03-25T17:20:53;20.75;;;3.33;;
22949;SDS011;11641;51.018;4.474;2023-03-25T17:23:30;21.65;;;3.63;;
22949;SDS011;11641;51.018;4.474;2023-03-25T17:26:09;17.30;;;2.83;;
22949;SDS011;11641;51.018;4.474;2023-03-25T17:34:07;24.77;;;3.97;;
22949;SDS011;11641;51.018;4.474;2023-03-25T17:36:42;18.10;;;2.70;;
22949;SDS011;11641;51.018;4.474;2023-03-25T17:39:21;24.13;;;3.67;;
22949;SDS011;11641;51.018;4.474;2023-03-25T17:41:49;22.58;;;2.95;;
22949;SDS011;11641;51.018;4.474;2023-03-25T17:44:39;25.30;;;3.55;;
22949;SDS011;11641;51.018;4.474;2023-03-25T17:47:11;20.90;;;3.47;;
22949;SDS011;11641;51.018;4.474;2023-03-25T17:49:40;18.25;;;3.70;;
22949;SDS011;11641;51.018;4.474;2023-03-25T17:52:06;19.20;;;3.63;;
22949;SDS011;11641;51.018;4.474;2023-03-25T17:54:32;22.25;;;3.28;;
22949;SDS011;11641;51.018;4.474;2023-03-25T17:56:59;23.20;;;3.75;;
22949;SDS011;11641;51.018;4.474;2023-03-25T17:59:26;24.15;;;4.22;;
22949;SDS011;11641;51.018;4.474;2023-03-25T18:01:52;20.88;;;3.25;;
22949;SDS011;11641;51.018;4.474;2023-03-25T18:04:18;21.33;;;4.38;;
22949;SDS011;11641;51.018;4.474;2023-03-25T18:06:47;23.30;;;3.80;;
22949;SDS011;11641;51.018;4.474;2023-03-25T18:09:14;24.42;;;3.95;;
22949;SDS011;11641;51.018;4.474;2023-03-25T18:11:42;29.65;;;4.07;;
22949;SDS011;11641;51.018;4.474;2023-03-25T18:14:09;26.50;;;4.25;;
22949;SDS011;11641;51.018;4.474;2023-03-25T18:16:35;29.48;;;4.00;;
22949;SDS011;11641;51.018;4.474;2023-03-25T18:19:01;17.92;;;3.13;;